Time;durP1;ratioP1;P1;durP2;ratioP2;P2;SDS_P1;SDS_P2;PMS_P1;PMS_P2;Temp;Humidity;BMP_temperature;BMP_pressure;BME280_temperature;BME280_humidity;BME280_pressure;Samples;Min_cycle;Max_cycle;Signal;HPM_P1;HPM_P2
2022/10/27 00:08:41;;;;;;;79.30;51.60;;;;;;;7.51;82.52;99379.52;421998;1294;97874;-41
2022/10/27 00:18:45;;;;;;;76.60;46.00;;;;;;;7.39;82.53;99393.57;421266;1295;110439;-41
2022/10/27 00:28:49;;;;;;;78.00;45.40;;;;;;;7.30;82.65;99398.02;421885;1296;108042;-41
2022/10/27 00:38:53;;;;;;;77.00;45.80;;;;;;;7.31;82.83;99400.98;422009;1298;97898;-41
2022/10/27 00:48:58;;;;;;;72.30;42.80;;;;;;;7.23;82.98;99397.48;421645;1295;109282;-41
2022/10/27 00:59:03;;;;;;;71.70;45.30;;;;;;;7.19;83.11;99405.81;421468;1289;97962;-40
2022/10/27 01:09:12;;;;;;;71.80;45.60;;;;;;;7.13;83.18;99418.16;422338;1267;109553;31
2022/10/27 01:19:27;;;;;;;82.00;50.30;;;;;;;7.11;83.29;99428.65;422008;1289;107532;-39
2022/10/27 01:29:57;;;;;;;80.60;48.20;;;;;;;7.03;83.18;99425.73;421856;1285;97480;-41
2022/10/27 01:40:00;;;;;;;75.30;44.70;;;;;;;7.01;83.58;99429.80;422140;1295;107921;-39
2022/10/27 01:50:04;;;;;;;75.90;45.80;;;;;;;7.03;83.51;99434.86;422221;1289;96928;-41
2022/10/27 02:00:09;;;;;;;70.10;43.30;;;;;;;7.01;83.57;99445.21;421687;1294;382637;-41
2022/10/27 02:20:20;;;;;;;71.80;44.70;;;;;;;6.87;83.93;99435.69;422295;1280;97301;-40
2022/10/27 02:30:24;;;;;;;78.10;44.30;;;;;;;6.82;83.96;99440.35;422293;1295;108904;-40
2022/10/27 02:40:27;;;;;;;73.10;45.40;;;;;;;6.74;84.17;99447.27;421626;1291;97892;-40
2022/10/27 02:50:31;;;;;;;65.90;43.70;;;;;;;6.74;84.32;99452.16;422311;1295;109924;-41
2022/10/27 03:00:35;;;;;;;73.50;44.20;;;;;;;6.78;84.66;99458.39;421986;1295;108827;-41
2022/10/27 03:10:38;;;;;;;73.00;43.00;;;;;;;6.84;84.80;99459.41;422242;1289;97755;-41
2022/10/27 03:20:44;;;;;;;58.70;39.90;;;;;;;6.90;84.89;99468.69;422304;1295;108594;-42
2022/10/27 03:30:47;;;;;;;68.40;40.80;;;;;;;6.90;84.94;99477.23;421993;1295;98248;-41
2022/10/27 03:40:51;;;;;;;68.50;41.40;;;;;;;6.85;84.84;99481.80;422087;1295;109624;-40
2022/10/27 03:50:55;;;;;;;61.00;41.80;;;;;;;6.69;84.93;99476.48;422239;1296;108183;-41
2022/10/27 04:01:00;;;;;;;53.40;38.00;;;;;;;6.47;85.01;99478.10;422191;1289;97867;-39
2022/10/27 04:11:03;;;;;;;53.80;36.90;;;;;;;6.37;85.27;99475.05;422187;1296;107298;-40
2022/10/27 04:21:07;;;;;;;55.90;36.10;;;;;;;6.38;85.59;99479.87;422442;1295;97487;-39
2022/10/27 04:31:11;;;;;;;61.90;38.20;;;;;;;6.38;85.58;99487.38;422305;1296;109885;-44
2022/10/27 04:41:15;;;;;;;79.00;49.70;;;;;;;6.34;85.70;99497.15;421903;1292;108376;-40
2022/10/27 04:51:18;;;;;;;76.60;46.00;;;;;;;6.28;85.76;99509.80;422006;1295;97913;-40
2022/10/27 05:01:26;;;;;;;59.60;36.50;;;;;;;6.20;85.84;99521.08;422081;1294;106697;-40
2022/10/27 05:11:30;;;;;;;56.20;36.70;;;;;;;6.08;85.97;99527.77;422467;1285;97745;-40
2022/10/27 05:21:33;;;;;;;59.70;38.10;;;;;;;6.04;86.26;99536.20;421924;1298;111852;-40
2022/10/27 05:31:37;;;;;;;55.40;35.60;;;;;;;5.99;86.45;99536.99;422092;1296;107743;-40
2022/10/27 05:41:40;;;;;;;52.10;33.60;;;;;;;6.04;86.72;99551.05;422103;1295;97870;-41
2022/10/27 05:51:44;;;;;;;52.00;34.30;;;;;;;6.17;86.76;99558.33;422041;1296;107200;-41
2022/10/27 06:01:48;;;;;;;60.60;37.80;;;;;;;6.27;86.76;99563.73;421969;1295;97876;-40
2022/10/27 06:11:51;;;;;;;65.30;40.30;;;;;;;6.39;86.75;99580.17;421838;1295;110429;-40
2022/10/27 06:21:55;;;;;;;54.40;35.80;;;;;;;6.57;86.93;99593.92;422123;1293;108549;-39
2022/10/27 06:31:58;;;;;;;58.10;36.60;;;;;;;6.79;87.04;99607.79;422202;1294;97474;-40
2022/10/27 06:42:01;;;;;;;54.20;35.20;;;;;;;7.02;87.11;99606.59;421880;1288;108011;-40
2022/10/27 06:52:05;;;;;;;65.80;39.20;;;;;;;7.23;87.11;99610.77;421826;1296;97252;-40
2022/10/27 07:02:09;;;;;;;58.90;37.70;;;;;;;7.61;87.51;99628.03;422287;1295;108926;-41
2022/10/27 07:12:12;;;;;;;48.40;29.30;;;;;;;8.28;87.66;99642.29;422161;1301;109326;-40
2022/10/27 07:22:17;;;;;;;48.60;33.10;;;;;;;9.57;88.36;99652.58;422354;1289;97810;-41
2022/10/27 07:32:23;;;;;;;52.30;35.40;;;;;;;11.47;88.39;99651.70;422035;1296;107484;-40
2022/10/27 07:42:26;;;;;;;47.80;33.20;;;;;;;12.58;87.46;99660.47;421986;1295;98016;-40
2022/10/27 07:52:30;;;;;;;56.50;37.60;;;;;;;13.46;86.92;99667.39;422159;1293;110033;-41
2022/10/27 08:02:33;;;;;;;56.20;35.20;;;;;;;14.07;86.28;99680.91;422351;1292;97592;-40
2022/10/27 08:12:41;;;;;;;42.80;29.50;;;;;;;14.23;85.42;99688.40;421935;1292;97609;-40
2022/10/27 08:22:44;;;;;;;41.20;28.90;;;;;;;14.30;84.65;99686.97;422515;1296;97474;-41
2022/10/27 08:32:49;;;;;;;46.20;30.00;;;;;;;14.60;84.63;99699.28;421970;1286;98306;-41
2022/10/27 08:42:58;;;;;;;36.10;26.80;;;;;;;14.92;84.10;99711.88;422290;1292;107581;-39
2022/10/27 08:53:02;;;;;;;39.70;26.70;;;;;;;15.21;83.56;99715.08;422159;1289;97867;-39
2022/10/27 09:03:17;;;;;;;34.50;25.30;;;;;;;15.63;83.34;99710.11;422275;1294;107862;-40
2022/10/27 09:13:23;;;;;;;44.30;25.60;;;;;;;16.04;83.09;99705.73;422089;1289;97896;-39
2022/10/27 09:23:29;;;;;;;34.90;26.50;;;;;;;16.24;82.59;99700.40;421936;1292;111171;-40
2022/10/27 09:33:33;;;;;;;27.40;21.30;;;;;;;16.38;82.13;99706.83;422192;1289;108485;-41
2022/10/27 09:43:37;;;;;;;21.20;10.90;;;;;;;16.73;81.87;99705.72;422056;1296;97494;-40
2022/10/27 09:53:41;;;;;;;13.90;8.50;;;;;;;17.01;81.70;99703.04;421980;1295;109849;-38
2022/10/27 10:04:05;;;;;;;12.70;8.30;;;;;;;17.42;81.57;99702.16;422372;1287;108266;-39
2022/10/27 10:24:27;;;;;;;15.30;8.70;;;;;;;17.74;80.30;99699.11;421927;1287;109519;-40
2022/10/27 10:34:33;;;;;;;16.70;7.10;;;;;;;17.78;79.63;99702.03;422144;1295;108238;-40
2022/10/27 10:44:37;;;;;;;11.80;7.10;;;;;;;18.10;79.61;99699.43;422152;1295;97584;-41
2022/10/27 10:54:43;;;;;;;11.20;6.50;;;;;;;18.23;79.20;99702.78;422270;1295;110278;-40
2022/10/27 11:04:47;;;;;;;14.50;7.70;;;;;;;18.29;78.84;99698.98;421859;1298;106579;-47
2022/10/27 11:14:53;;;;;;;13.10;8.20;;;;;;;18.25;78.28;99696.16;422222;1295;97870;-38
2022/10/27 11:25:03;;;;;;;9.30;6.70;;;;;;;18.27;77.90;99702.77;422393;1294;110707;-42
2022/10/27 11:35:10;;;;;;;14.10;7.90;;;;;;;18.28;77.64;99703.59;422118;1299;108083;-40
2022/10/27 11:45:15;;;;;;;9.80;7.30;;;;;;;18.44;77.62;99709.23;422252;1296;97893;-42
2022/10/27 11:55:21;;;;;;;15.70;7.30;;;;;;;18.40;77.19;99700.14;421813;1279;111180;-40
2022/10/27 12:05:28;;;;;;;12.90;7.70;;;;;;;18.43;77.07;99698.17;422431;1290;107908;-40
2022/10/27 12:15:34;;;;;;;12.10;6.70;;;;;;;18.33;76.57;99690.92;422234;1295;97876;-40
2022/10/27 12:25:42;;;;;;;8.60;5.00;;;;;;;18.30;76.28;99687.48;422130;1289;97490;-40
2022/10/27 12:36:00;;;;;;;8.20;5.10;;;;;;;18.35;76.14;99682.96;422069;1288;107906;-40
2022/10/27 12:46:13;;;;;;;10.70;5.10;;;;;;;18.32;75.69;99675.92;422439;1295;98017;-40
2022/10/27 12:56:29;;;;;;;11.70;5.90;;;;;;;18.21;75.30;99671.33;422067;1294;97863;-41
2022/10/27 13:06:52;;;;;;;10.20;5.00;;;;;;;17.98;74.95;99663.39;421819;1289;111570;-41
2022/10/27 13:16:57;;;;;;;41.90;21.40;;;;;;;17.91;74.98;99674.50;422241;1295;108170;-39
2022/10/27 13:27:01;;;;;;;10.50;5.80;;;;;;;17.70;74.64;99675.73;422449;1288;97487;-40
2022/10/27 13:37:39;;;;;;;13.00;5.90;;;;;;;17.64;74.88;99678.63;422043;1280;108228;-41
2022/10/27 13:48:22;;;;;;;19.70;11.20;;;;;;;17.46;75.18;99679.52;422176;1291;98248;-41
2022/10/27 13:58:34;;;;;;;15.50;10.20;;;;;;;17.22;75.07;99684.70;422109;1289;256569;-41
2022/10/27 14:08:46;;;;;;;15.20;9.80;;;;;;;17.05;75.04;99688.99;421951;1293;110402;-41
2022/10/27 14:40:38;;;;;;;12.40;6.40;;;;;;;16.81;75.44;99694.42;422069;1295;110577;-40
2022/10/27 14:50:42;;;;;;;21.90;10.60;;;;;;;16.49;75.60;99687.91;422078;1295;108410;-40
2022/10/27 15:00:50;;;;;;;22.00;9.20;;;;;;;16.19;75.64;99683.66;422332;1295;97235;-41
2022/10/27 15:10:58;;;;;;;19.20;10.00;;;;;;;15.96;75.80;99682.02;421894;1292;110303;-41
2022/10/27 15:21:08;;;;;;;14.80;9.00;;;;;;;15.77;76.18;99685.75;422190;1295;107887;-41
2022/10/27 15:31:12;;;;;;;17.80;9.10;;;;;;;15.46;76.61;99685.23;422127;1295;97975;-41
2022/10/27 15:51:24;;;;;;;41.30;26.00;;;;;;;14.50;76.81;99690.94;421843;1295;109339;-41
2022/10/27 16:01:34;;;;;;;42.20;24.80;;;;;;;14.03;77.26;99697.91;422079;1287;97621;-40
2022/10/27 16:11:40;;;;;;;44.30;23.70;;;;;;;13.61;77.63;99704.80;422216;1295;107579;-40
2022/10/27 16:21:44;;;;;;;44.90;26.10;;;;;;;13.35;77.92;99712.20;422218;1295;97858;-42
2022/10/27 16:31:50;;;;;;;41.90;25.80;;;;;;;13.02;78.00;99722.03;421871;1288;109613;-41
2022/10/27 16:41:53;;;;;;;54.10;31.00;;;;;;;12.74;78.48;99718.48;422110;1295;107897;-41
2022/10/27 16:51:57;;;;;;;68.30;40.30;;;;;;;12.47;78.90;99720.67;421927;1295;97480;-41
2022/10/27 17:02:01;;;;;;;67.90;44.10;;;;;;;12.33;79.37;99731.14;421995;1295;109130;-40
2022/10/27 17:12:05;;;;;;;88.60;55.60;;;;;;;12.20;79.68;99729.79;422159;1295;97870;-41
2022/10/27 17:22:09;;;;;;;98.80;62.90;;;;;;;12.08;80.14;99724.85;422034;1289;110974;-39
2022/10/27 17:32:12;;;;;;;114.30;69.60;;;;;;;11.97;80.38;99723.07;421904;1295;108455;-41
2022/10/27 17:42:16;;;;;;;110.40;68.30;;;;;;;11.84;80.72;99733.25;422080;1295;97631;-41
2022/10/27 17:52:20;;;;;;;114.60;69.50;;;;;;;11.72;80.76;99735.22;422344;1295;107272;-41
2022/10/27 18:02:24;;;;;;;114.70;69.60;;;;;;;11.61;81.08;99732.23;422127;1288;97950;-41
2022/10/27 18:12:27;;;;;;;147.30;81.10;;;;;;;11.57;81.51;99730.12;422294;1295;110708;-41
2022/10/27 18:22:30;;;;;;;152.70;87.00;;;;;;;11.56;81.90;99725.69;422014;1289;108413;-42
2022/10/27 18:32:34;;;;;;;193.50;105.60;;;;;;;11.52;82.12;99730.31;421419;1295;98013;-41
2022/10/27 18:42:37;;;;;;;193.90;111.70;;;;;;;11.45;82.42;99724.92;421884;1289;108367;-40
2022/10/27 18:52:41;;;;;;;155.60;90.70;;;;;;;11.34;82.48;99723.81;421983;1289;98683;-40
2022/10/27 19:02:48;;;;;;;134.30;84.40;;;;;;;11.22;82.66;99728.65;422041;1295;111165;-41
2022/10/27 19:12:52;;;;;;;112.00;74.50;;;;;;;11.16;82.98;99734.23;422346;1295;108620;-41
2022/10/27 19:22:57;;;;;;;138.70;85.60;;;;;;;11.12;83.13;99741.13;422236;1289;97880;-41
2022/10/27 19:33:00;;;;;;;138.40;84.40;;;;;;;11.10;83.43;99746.48;422140;1287;109687;-41
2022/10/27 19:43:04;;;;;;;119.90;82.50;;;;;;;11.04;83.53;99752.81;421947;1289;97873;-41
2022/10/27 19:53:08;;;;;;;124.80;83.60;;;;;;;10.94;83.28;99754.98;421596;1291;111297;-41
2022/10/27 20:03:11;;;;;;;117.40;78.60;;;;;;;10.67;83.38;99743.02;422120;1295;107912;-41
2022/10/27 20:13:14;;;;;;;95.90;66.80;;;;;;;10.59;83.81;99740.61;421998;1287;97898;-41
2022/10/27 20:23:17;;;;;;;97.40;66.50;;;;;;;10.63;84.07;99740.03;422121;1289;107467;-41
2022/10/27 20:33:21;;;;;;;102.00;64.10;;;;;;;10.63;84.22;99737.39;421983;1296;97567;-40
2022/10/27 20:43:25;;;;;;;100.60;62.00;;;;;;;10.64;84.47;99730.91;422412;1295;111513;-40
2022/10/27 20:53:30;;;;;;;101.70;67.70;;;;;;;10.68;84.77;99730.98;421497;1295;107817;-40
2022/10/27 21:03:34;;;;;;;98.00;66.10;;;;;;;10.61;84.81;99731.00;422238;1287;98012;-40
2022/10/27 21:13:38;;;;;;;94.00;63.20;;;;;;;10.46;84.89;99727.55;422069;1295;108141;-40
2022/10/27 21:23:43;;;;;;;95.20;61.30;;;;;;;10.39;85.03;99728.06;422357;1295;97534;-39
2022/10/27 21:33:48;;;;;;;92.40;59.80;;;;;;;10.28;85.13;99726.49;422297;1289;107635;-39
2022/10/27 21:43:53;;;;;;;91.70;57.00;;;;;;;10.20;85.24;99724.64;421904;1295;108402;-41
2022/10/27 21:53:57;;;;;;;87.20;59.60;;;;;;;10.13;85.43;99718.58;422345;1289;98271;-41
2022/10/27 22:04:06;;;;;;;91.30;60.60;;;;;;;10.08;85.51;99718.69;422136;1295;107875;-41
2022/10/27 22:14:10;;;;;;;104.10;65.30;;;;;;;10.02;85.78;99716.33;422128;1295;97798;-41
2022/10/27 22:24:15;;;;;;;97.00;65.20;;;;;;;9.97;85.90;99714.05;422166;1289;109881;-41
2022/10/27 22:34:19;;;;;;;91.40;61.50;;;;;;;9.92;86.11;99711.20;422129;1295;108440;-41
2022/10/27 22:44:23;;;;;;;93.70;64.40;;;;;;;9.83;86.10;99709.60;421936;1295;97867;-40
2022/10/27 22:54:27;;;;;;;94.50;64.80;;;;;;;9.75;86.43;99704.30;422271;1295;109841;-40
2022/10/27 23:04:30;;;;;;;97.70;65.10;;;;;;;9.67;86.50;99703.65;422156;1272;97790;-41
2022/10/27 23:14:34;;;;;;;99.00;65.10;;;;;;;9.56;86.60;99702.75;422206;1295;109507;-42
2022/10/27 23:24:38;;;;;;;98.60;63.80;;;;;;;9.45;86.73;99705.14;421908;1292;108501;-40
2022/10/27 23:34:41;;;;;;;92.80;63.00;;;;;;;9.35;86.72;99697.16;422236;1295;98008;-39
2022/10/27 23:44:45;;;;;;;92.30;60.90;;;;;;;9.31;86.94;99694.42;422387;1295;108714;-39
2022/10/27 23:54:48;;;;;;;92.40;61.10;;;;;;;9.24;86.95;99685.09;422426;1295;97894;-40
